Groton, Vermont
Current Conditions -  °F | °C
As of 6:11 PM on Tuesday 27 Jan 2015 (Local Time) from KMPV Reporting Station
Light Snow Light Snow  
Wind Chill: -11°   Ceiling: 1400
Heat Index:   Visibility: 1mi
Dew Point:   Wind: 16mph
Humidity: 77%   Direction: 360°N
Pressure: 29.81"   Gusts: 24mph
Location:  44.21°N, 72.2°W
Report Text: KMPV 272311Z AUTO 36014G21KT 1SM -SN VV014 M14/M17 A2981 RMK AO2 P0000 T11391172
Loading
Personal Weather Stations






























Interactive Weather Map New forecast layout! Learn more

10-Day Weather Forecast

Advertisements
Track Severe Weather on mobile